sensor_id;sensor_type;location;lat;lon;timestamp;P1;durP1;ratioP1;P2;durP2;ratioP2
22660;SDS011;11497;52.222;21.246;2023-05-17T00:02:18;36.20;;;24.58;;
22660;SDS011;11497;52.222;21.246;2023-05-17T00:04:46;34.35;;;23.52;;
22660;SDS011;11497;52.222;21.246;2023-05-17T00:07:14;35.33;;;25.13;;
22660;SDS011;11497;52.222;21.246;2023-05-17T00:09:42;34.63;;;23.40;;
22660;SDS011;11497;52.222;21.246;2023-05-17T00:12:10;32.90;;;24.80;;
22660;SDS011;11497;52.222;21.246;2023-05-17T00:14:38;41.40;;;29.90;;
22660;SDS011;11497;52.222;21.246;2023-05-17T00:17:06;45.78;;;31.20;;
22660;SDS011;11497;52.222;21.246;2023-05-17T00:19:34;49.90;;;33.88;;
22660;SDS011;11497;52.222;21.246;2023-05-17T00:22:01;45.58;;;29.73;;
22660;SDS011;11497;52.222;21.246;2023-05-17T00:24:30;35.95;;;25.45;;
22660;SDS011;11497;52.222;21.246;2023-05-17T00:26:57;33.40;;;22.90;;
22660;SDS011;11497;52.222;21.246;2023-05-17T00:29:25;24.67;;;20.45;;
22660;SDS011;11497;52.222;21.246;2023-05-17T00:31:53;28.23;;;20.67;;
22660;SDS011;11497;52.222;21.246;2023-05-17T00:34:21;29.30;;;20.50;;
22660;SDS011;11497;52.222;21.246;2023-05-17T00:36:49;27.17;;;21.55;;
22660;SDS011;11497;52.222;21.246;2023-05-17T00:39:17;24.13;;;19.95;;
22660;SDS011;11497;52.222;21.246;2023-05-17T00:41:45;27.45;;;20.40;;
22660;SDS011;11497;52.222;21.246;2023-05-17T00:44:13;25.63;;;19.92;;
22660;SDS011;11497;52.222;21.246;2023-05-17T00:46:41;26.73;;;20.55;;
22660;SDS011;11497;52.222;21.246;2023-05-17T00:49:09;24.27;;;19.33;;
22660;SDS011;11497;52.222;21.246;2023-05-17T00:51:37;24.20;;;17.85;;
22660;SDS011;11497;52.222;21.246;2023-05-17T00:54:05;24.05;;;18.23;;
22660;SDS011;11497;52.222;21.246;2023-05-17T00:56:33;21.25;;;17.95;;
22660;SDS011;11497;52.222;21.246;2023-05-17T00:59:02;22.20;;;18.45;;
22660;SDS011;11497;52.222;21.246;2023-05-17T01:01:32;26.75;;;18.92;;
22660;SDS011;11497;52.222;21.246;2023-05-17T01:04:02;26.13;;;19.95;;
22660;SDS011;11497;52.222;21.246;2023-05-17T01:06:32;24.17;;;18.33;;
22660;SDS011;11497;52.222;21.246;2023-05-17T01:09:01;22.15;;;17.70;;
22660;SDS011;11497;52.222;21.246;2023-05-17T01:17:22;18.83;;;14.82;;
22660;SDS011;11497;52.222;21.246;2023-05-17T01:23:18;18.85;;;15.55;;
22660;SDS011;11497;52.222;21.246;2023-05-17T01:26:15;17.15;;;14.48;;
22660;SDS011;11497;52.222;21.246;2023-05-17T01:28:45;20.30;;;15.35;;
22660;SDS011;11497;52.222;21.246;2023-05-17T01:31:18;18.40;;;14.60;;
22660;SDS011;11497;52.222;21.246;2023-05-17T01:33:47;16.73;;;14.07;;
22660;SDS011;11497;52.222;21.246;2023-05-17T01:36:16;16.30;;;13.85;;
22660;SDS011;11497;52.222;21.246;2023-05-17T01:38:43;17.98;;;14.07;;
22660;SDS011;11497;52.222;21.246;2023-05-17T01:41:32;16.88;;;14.82;;
22660;SDS011;11497;52.222;21.246;2023-05-17T01:46:54;18.55;;;16.27;;
22660;SDS011;11497;52.222;21.246;2023-05-17T01:49:47;24.03;;;17.40;;
22660;SDS011;11497;52.222;21.246;2023-05-17T01:52:23;24.10;;;18.75;;
22660;SDS011;11497;52.222;21.246;2023-05-17T01:58:12;21.50;;;18.42;;
22660;SDS011;11497;52.222;21.246;2023-05-17T02:00:40;25.25;;;18.85;;
22660;SDS011;11497;52.222;21.246;2023-05-17T02:03:18;22.45;;;18.60;;
22660;SDS011;11497;52.222;21.246;2023-05-17T02:05:51;23.40;;;18.83;;
22660;SDS011;11497;52.222;21.246;2023-05-17T02:08:19;20.40;;;18.20;;
22660;SDS011;11497;52.222;21.246;2023-05-17T02:10:47;25.40;;;20.10;;
22660;SDS011;11497;52.222;21.246;2023-05-17T02:13:14;24.80;;;20.00;;
22660;SDS011;11497;52.222;21.246;2023-05-17T02:15:42;26.70;;;21.08;;
22660;SDS011;11497;52.222;21.246;2023-05-17T02:18:10;26.38;;;21.38;;
22660;SDS011;11497;52.222;21.246;2023-05-17T02:20:38;27.13;;;21.77;;
22660;SDS011;11497;52.222;21.246;2023-05-17T02:23:07;27.35;;;22.10;;
22660;SDS011;11497;52.222;21.246;2023-05-17T02:25:35;30.90;;;23.70;;
22660;SDS011;11497;52.222;21.246;2023-05-17T02:28:04;23.60;;;20.52;;
22660;SDS011;11497;52.222;21.246;2023-05-17T02:30:33;28.98;;;21.98;;
22660;SDS011;11497;52.222;21.246;2023-05-17T02:33:02;28.25;;;21.85;;
22660;SDS011;11497;52.222;21.246;2023-05-17T02:35:30;27.33;;;21.80;;
22660;SDS011;11497;52.222;21.246;2023-05-17T02:37:58;28.63;;;22.90;;
22660;SDS011;11497;52.222;21.246;2023-05-17T02:40:26;31.85;;;23.73;;
22660;SDS011;11497;52.222;21.246;2023-05-17T02:42:54;28.08;;;22.70;;
22660;SDS011;11497;52.222;21.246;2023-05-17T02:45:22;32.50;;;24.10;;
22660;SDS011;11497;52.222;21.246;2023-05-17T02:47:50;30.15;;;23.55;;
22660;SDS011;11497;52.222;21.246;2023-05-17T02:50:18;30.25;;;24.25;;
22660;SDS011;11497;52.222;21.246;2023-05-17T02:52:46;34.83;;;24.80;;
22660;SDS011;11497;52.222;21.246;2023-05-17T02:55:14;32.90;;;24.55;;
22660;SDS011;11497;52.222;21.246;2023-05-17T02:57:42;33.50;;;25.63;;
22660;SDS011;11497;52.222;21.246;2023-05-17T03:00:11;33.42;;;25.40;;
22660;SDS011;11497;52.222;21.246;2023-05-17T03:02:39;37.25;;;26.02;;
22660;SDS011;11497;52.222;21.246;2023-05-17T03:05:08;31.52;;;25.25;;
22660;SDS011;11497;52.222;21.246;2023-05-17T03:07:41;35.20;;;27.17;;
22660;SDS011;11497;52.222;21.246;2023-05-17T03:10:08;35.72;;;26.27;;
22660;SDS011;11497;52.222;21.246;2023-05-17T03:12:41;32.97;;;25.95;;
22660;SDS011;11497;52.222;21.246;2023-05-17T03:15:09;35.45;;;26.73;;
22660;SDS011;11497;52.222;21.246;2023-05-17T03:17:38;33.78;;;26.60;;
22660;SDS011;11497;52.222;21.246;2023-05-17T03:20:07;36.42;;;27.92;;
22660;SDS011;11497;52.222;21.246;2023-05-17T03:22:35;37.75;;;27.95;;
22660;SDS011;11497;52.222;21.246;2023-05-17T03:25:03;38.67;;;27.58;;
22660;SDS011;11497;52.222;21.246;2023-05-17T03:27:32;39.08;;;29.65;;
22660;SDS011;11497;52.222;21.246;2023-05-17T03:30:00;37.70;;;28.85;;
22660;SDS011;11497;52.222;21.246;2023-05-17T03:32:30;36.35;;;26.88;;
22660;SDS011;11497;52.222;21.246;2023-05-17T03:34:58;35.72;;;27.05;;
22660;SDS011;11497;52.222;21.246;2023-05-17T03:37:27;34.83;;;26.35;;
22660;SDS011;11497;52.222;21.246;2023-05-17T03:39:55;34.80;;;26.48;;
22660;SDS011;11497;52.222;21.246;2023-05-17T03:42:23;31.00;;;25.70;;
22660;SDS011;11497;52.222;21.246;2023-05-17T03:44:51;36.90;;;26.60;;
22660;SDS011;11497;52.222;21.246;2023-05-17T03:47:19;33.83;;;25.85;;
22660;SDS011;11497;52.222;21.246;2023-05-17T03:49:50;34.05;;;26.35;;
22660;SDS011;11497;52.222;21.246;2023-05-17T03:52:18;32.05;;;25.10;;
22660;SDS011;11497;52.222;21.246;2023-05-17T03:54:47;31.50;;;24.77;;
22660;SDS011;11497;52.222;21.246;2023-05-17T03:57:15;30.85;;;24.00;;
22660;SDS011;11497;52.222;21.246;2023-05-17T03:59:44;35.80;;;25.38;;
22660;SDS011;11497;52.222;21.246;2023-05-17T04:02:14;31.90;;;25.33;;
22660;SDS011;11497;52.222;21.246;2023-05-17T04:04:48;33.38;;;25.15;;
22660;SDS011;11497;52.222;21.246;2023-05-17T04:07:19;28.48;;;22.05;;
22660;SDS011;11497;52.222;21.246;2023-05-17T04:09:47;29.42;;;23.20;;
22660;SDS011;11497;52.222;21.246;2023-05-17T04:12:15;31.77;;;23.35;;
22660;SDS011;11497;52.222;21.246;2023-05-17T04:14:43;30.30;;;24.15;;
22660;SDS011;11497;52.222;21.246;2023-05-17T04:17:11;29.83;;;22.67;;
22660;SDS011;11497;52.222;21.246;2023-05-17T04:19:43;30.17;;;23.02;;
22660;SDS011;11497;52.222;21.246;2023-05-17T04:22:11;29.45;;;22.40;;
22660;SDS011;11497;52.222;21.246;2023-05-17T04:24:39;28.42;;;22.02;;
22660;SDS011;11497;52.222;21.246;2023-05-17T04:27:07;27.65;;;22.63;;
22660;SDS011;11497;52.222;21.246;2023-05-17T04:29:35;28.02;;;21.75;;
22660;SDS011;11497;52.222;21.246;2023-05-17T04:32:03;26.60;;;22.27;;
22660;SDS011;11497;52.222;21.246;2023-05-17T04:34:31;25.48;;;21.17;;
22660;SDS011;11497;52.222;21.246;2023-05-17T04:37:01;27.42;;;22.30;;
22660;SDS011;11497;52.222;21.246;2023-05-17T04:39:31;28.65;;;22.00;;
22660;SDS011;11497;52.222;21.246;2023-05-17T04:41:59;26.48;;;21.60;;
22660;SDS011;11497;52.222;21.246;2023-05-17T04:44:28;27.33;;;21.92;;
22660;SDS011;11497;52.222;21.246;2023-05-17T04:46:56;26.23;;;21.42;;
22660;SDS011;11497;52.222;21.246;2023-05-17T04:49:24;29.73;;;21.55;;
22660;SDS011;11497;52.222;21.246;2023-05-17T04:51:57;28.02;;;22.65;;
22660;SDS011;11497;52.222;21.246;2023-05-17T04:54:25;28.25;;;22.60;;
22660;SDS011;11497;52.222;21.246;2023-05-17T04:56:53;26.42;;;22.20;;
22660;SDS011;11497;52.222;21.246;2023-05-17T04:59:41;28.52;;;23.05;;
22660;SDS011;11497;52.222;21.246;2023-05-17T05:02:09;28.17;;;22.00;;
22660;SDS011;11497;52.222;21.246;2023-05-17T05:04:38;27.25;;;22.50;;
22660;SDS011;11497;52.222;21.246;2023-05-17T05:07:07;27.27;;;22.55;;
22660;SDS011;11497;52.222;21.246;2023-05-17T05:09:35;26.77;;;21.52;;
22660;SDS011;11497;52.222;21.246;2023-05-17T05:12:04;27.88;;;22.50;;
22660;SDS011;11497;52.222;21.246;2023-05-17T05:14:33;30.20;;;23.33;;
22660;SDS011;11497;52.222;21.246;2023-05-17T05:17:03;25.45;;;21.42;;
22660;SDS011;11497;52.222;21.246;2023-05-17T05:19:31;30.98;;;23.88;;
22660;SDS011;11497;52.222;21.246;2023-05-17T05:22:00;27.35;;;23.35;;
22660;SDS011;11497;52.222;21.246;2023-05-17T05:24:30;32.92;;;24.75;;
22660;SDS011;11497;52.222;21.246;2023-05-17T05:26:59;29.42;;;23.80;;
22660;SDS011;11497;52.222;21.246;2023-05-17T05:29:27;28.80;;;24.10;;
22660;SDS011;11497;52.222;21.246;2023-05-17T05:31:55;32.78;;;24.55;;
22660;SDS011;11497;52.222;21.246;2023-05-17T05:34:23;32.67;;;24.67;;
22660;SDS011;11497;52.222;21.246;2023-05-17T05:36:51;30.48;;;24.83;;
22660;SDS011;11497;52.222;21.246;2023-05-17T05:39:19;34.38;;;25.90;;
22660;SDS011;11497;52.222;21.246;2023-05-17T05:41:47;32.47;;;26.33;;
22660;SDS011;11497;52.222;21.246;2023-05-17T05:44:15;34.53;;;26.38;;
22660;SDS011;11497;52.222;21.246;2023-05-17T05:46:43;33.83;;;26.90;;
22660;SDS011;11497;52.222;21.246;2023-05-17T05:49:12;30.65;;;24.63;;
22660;SDS011;11497;52.222;21.246;2023-05-17T05:51:40;32.00;;;25.63;;
22660;SDS011;11497;52.222;21.246;2023-05-17T05:54:08;32.45;;;25.65;;
22660;SDS011;11497;52.222;21.246;2023-05-17T05:56:37;31.13;;;23.95;;
22660;SDS011;11497;52.222;21.246;2023-05-17T05:59:06;29.23;;;22.75;;
22660;SDS011;11497;52.222;21.246;2023-05-17T06:01:35;26.73;;;22.58;;
22660;SDS011;11497;52.222;21.246;2023-05-17T06:04:03;28.60;;;22.33;;
22660;SDS011;11497;52.222;21.246;2023-05-17T06:06:31;28.77;;;23.30;;
22660;SDS011;11497;52.222;21.246;2023-05-17T06:08:59;28.15;;;23.02;;
22660;SDS011;11497;52.222;21.246;2023-05-17T06:11:28;26.80;;;20.33;;
22660;SDS011;11497;52.222;21.246;2023-05-17T06:13:55;29.85;;;23.23;;
22660;SDS011;11497;52.222;21.246;2023-05-17T06:16:23;30.48;;;23.17;;
22660;SDS011;11497;52.222;21.246;2023-05-17T06:18:51;27.05;;;22.05;;
22660;SDS011;11497;52.222;21.246;2023-05-17T06:21:19;27.35;;;22.05;;
22660;SDS011;11497;52.222;21.246;2023-05-17T06:23:47;25.23;;;20.25;;
22660;SDS011;11497;52.222;21.246;2023-05-17T06:26:15;23.15;;;18.77;;
22660;SDS011;11497;52.222;21.246;2023-05-17T06:28:43;20.58;;;17.40;;
22660;SDS011;11497;52.222;21.246;2023-05-17T06:31:11;20.70;;;16.67;;
22660;SDS011;11497;52.222;21.246;2023-05-17T06:33:39;20.55;;;17.02;;
22660;SDS011;11497;52.222;21.246;2023-05-17T06:36:08;21.45;;;17.42;;
22660;SDS011;11497;52.222;21.246;2023-05-17T06:38:36;20.33;;;16.83;;
22660;SDS011;11497;52.222;21.246;2023-05-17T06:41:04;18.10;;;14.95;;
22660;SDS011;11497;52.222;21.246;2023-05-17T06:43:32;17.88;;;15.73;;
22660;SDS011;11497;52.222;21.246;2023-05-17T06:46:03;18.42;;;15.35;;
22660;SDS011;11497;52.222;21.246;2023-05-17T06:48:31;22.27;;;16.75;;
22660;SDS011;11497;52.222;21.246;2023-05-17T06:50:59;19.33;;;16.42;;
22660;SDS011;11497;52.222;21.246;2023-05-17T06:53:28;22.00;;;16.15;;
22660;SDS011;11497;52.222;21.246;2023-05-17T06:55:56;18.17;;;14.70;;
22660;SDS011;11497;52.222;21.246;2023-05-17T06:58:23;14.35;;;12.60;;
22660;SDS011;11497;52.222;21.246;2023-05-17T07:00:52;15.32;;;13.35;;
22660;SDS011;11497;52.222;21.246;2023-05-17T07:03:20;17.20;;;13.80;;
22660;SDS011;11497;52.222;21.246;2023-05-17T07:05:48;17.00;;;13.70;;
22660;SDS011;11497;52.222;21.246;2023-05-17T07:08:16;15.73;;;13.60;;
22660;SDS011;11497;52.222;21.246;2023-05-17T07:10:44;14.73;;;13.02;;
22660;SDS011;11497;52.222;21.246;2023-05-17T07:13:11;17.15;;;13.57;;
22660;SDS011;11497;52.222;21.246;2023-05-17T07:15:40;16.58;;;13.82;;
22660;SDS011;11497;52.222;21.246;2023-05-17T07:18:08;18.08;;;14.20;;
22660;SDS011;11497;52.222;21.246;2023-05-17T07:20:36;16.30;;;13.15;;
22660;SDS011;11497;52.222;21.246;2023-05-17T07:23:04;15.88;;;13.05;;
22660;SDS011;11497;52.222;21.246;2023-05-17T07:25:32;18.77;;;13.65;;
22660;SDS011;11497;52.222;21.246;2023-05-17T07:30:34;16.35;;;12.05;;
22660;SDS011;11497;52.222;21.246;2023-05-17T07:33:03;12.07;;;10.75;;
22660;SDS011;11497;52.222;21.246;2023-05-17T07:35:31;10.40;;;9.30;;
22660;SDS011;11497;52.222;21.246;2023-05-17T07:37:58;11.73;;;9.98;;
22660;SDS011;11497;52.222;21.246;2023-05-17T07:40:27;10.50;;;9.40;;
22660;SDS011;11497;52.222;21.246;2023-05-17T07:42:55;11.20;;;9.45;;
22660;SDS011;11497;52.222;21.246;2023-05-17T07:45:23;9.50;;;8.30;;
22660;SDS011;11497;52.222;21.246;2023-05-17T07:47:51;9.48;;;8.18;;
22660;SDS011;11497;52.222;21.246;2023-05-17T07:50:19;9.80;;;7.95;;
22660;SDS011;11497;52.222;21.246;2023-05-17T07:52:47;8.18;;;7.38;;
22660;SDS011;11497;52.222;21.246;2023-05-17T07:55:15;7.78;;;7.03;;
22660;SDS011;11497;52.222;21.246;2023-05-17T07:57:43;7.90;;;7.10;;
22660;SDS011;11497;52.222;21.246;2023-05-17T08:00:13;8.57;;;7.13;;
22660;SDS011;11497;52.222;21.246;2023-05-17T08:02:44;7.35;;;6.63;;
22660;SDS011;11497;52.222;21.246;2023-05-17T08:05:13;6.20;;;5.57;;
22660;SDS011;11497;52.222;21.246;2023-05-17T08:07:41;6.03;;;5.28;;
22660;SDS011;11497;52.222;21.246;2023-05-17T08:10:09;5.97;;;5.38;;
22660;SDS011;11497;52.222;21.246;2023-05-17T08:12:37;7.25;;;5.90;;
22660;SDS011;11497;52.222;21.246;2023-05-17T08:15:05;6.88;;;6.13;;
22660;SDS011;11497;52.222;21.246;2023-05-17T08:17:33;9.77;;;6.45;;
22660;SDS011;11497;52.222;21.246;2023-05-17T08:20:02;8.55;;;7.20;;
22660;SDS011;11497;52.222;21.246;2023-05-17T08:22:34;7.68;;;6.88;;
22660;SDS011;11497;52.222;21.246;2023-05-17T08:25:05;11.45;;;7.28;;
22660;SDS011;11497;52.222;21.246;2023-05-17T08:27:33;7.82;;;7.03;;
22660;SDS011;11497;52.222;21.246;2023-05-17T08:30:01;8.63;;;7.65;;
22660;SDS011;11497;52.222;21.246;2023-05-17T08:32:36;7.53;;;6.55;;
22660;SDS011;11497;52.222;21.246;2023-05-17T08:35:05;7.95;;;6.80;;
22660;SDS011;11497;52.222;21.246;2023-05-17T08:37:33;7.93;;;7.13;;
22660;SDS011;11497;52.222;21.246;2023-05-17T08:40:01;10.68;;;7.68;;
22660;SDS011;11497;52.222;21.246;2023-05-17T08:42:30;8.10;;;7.30;;
22660;SDS011;11497;52.222;21.246;2023-05-17T08:44:59;9.15;;;8.25;;
22660;SDS011;11497;52.222;21.246;2023-05-17T08:47:27;8.93;;;8.02;;
22660;SDS011;11497;52.222;21.246;2023-05-17T08:49:58;8.38;;;7.38;;
22660;SDS011;11497;52.222;21.246;2023-05-17T08:52:31;9.85;;;8.68;;
22660;SDS011;11497;52.222;21.246;2023-05-17T08:55:01;10.23;;;8.18;;
22660;SDS011;11497;52.222;21.246;2023-05-17T08:57:32;9.65;;;8.65;;
22660;SDS011;11497;52.222;21.246;2023-05-17T09:00:05;11.82;;;8.70;;
22660;SDS011;11497;52.222;21.246;2023-05-17T09:02:38;10.90;;;9.13;;
22660;SDS011;11497;52.222;21.246;2023-05-17T09:05:08;11.90;;;9.68;;
22660;SDS011;11497;52.222;21.246;2023-05-17T09:07:36;9.88;;;8.82;;
22660;SDS011;11497;52.222;21.246;2023-05-17T09:10:05;10.77;;;9.07;;
22660;SDS011;11497;52.222;21.246;2023-05-17T09:12:33;10.10;;;8.90;;
22660;SDS011;11497;52.222;21.246;2023-05-17T09:15:16;9.77;;;8.77;;
22660;SDS011;11497;52.222;21.246;2023-05-17T09:17:52;11.07;;;9.43;;
22660;SDS011;11497;52.222;21.246;2023-05-17T09:20:25;9.82;;;8.82;;
22660;SDS011;11497;52.222;21.246;2023-05-17T09:23:08;10.38;;;8.40;;
22660;SDS011;11497;52.222;21.246;2023-05-17T09:25:45;9.65;;;8.18;;
22660;SDS011;11497;52.222;21.246;2023-05-17T09:28:15;11.20;;;7.95;;
22660;SDS011;11497;52.222;21.246;2023-05-17T09:30:48;10.40;;;8.98;;
22660;SDS011;11497;52.222;21.246;2023-05-17T09:33:16;11.02;;;9.23;;
22660;SDS011;11497;52.222;21.246;2023-05-17T09:35:48;11.07;;;8.90;;
22660;SDS011;11497;52.222;21.246;2023-05-17T09:38:16;8.63;;;7.75;;
22660;SDS011;11497;52.222;21.246;2023-05-17T09:40:45;8.23;;;7.32;;
22660;SDS011;11497;52.222;21.246;2023-05-17T09:43:14;8.27;;;7.47;;
22660;SDS011;11497;52.222;21.246;2023-05-17T09:45:55;8.18;;;7.28;;
22660;SDS011;11497;52.222;21.246;2023-05-17T09:48:25;7.60;;;6.82;;
22660;SDS011;11497;52.222;21.246;2023-05-17T09:50:56;10.70;;;7.55;;
22660;SDS011;11497;52.222;21.246;2023-05-17T09:53:26;9.15;;;7.20;;
22660;SDS011;11497;52.222;21.246;2023-05-17T09:55:56;10.10;;;7.97;;
22660;SDS011;11497;52.222;21.246;2023-05-17T09:58:30;9.35;;;8.10;;
22660;SDS011;11497;52.222;21.246;2023-05-17T10:01:01;8.50;;;7.35;;
22660;SDS011;11497;52.222;21.246;2023-05-17T10:03:30;8.93;;;6.78;;
22660;SDS011;11497;52.222;21.246;2023-05-17T10:06:00;9.07;;;6.80;;
22660;SDS011;11497;52.222;21.246;2023-05-17T10:08:31;11.35;;;7.03;;
22660;SDS011;11497;52.222;21.246;2023-05-17T10:11:09;8.90;;;6.40;;
22660;SDS011;11497;52.222;21.246;2023-05-17T10:13:46;7.90;;;7.10;;
22660;SDS011;11497;52.222;21.246;2023-05-17T10:16:32;8.75;;;7.25;;
22660;SDS011;11497;52.222;21.246;2023-05-17T10:19:00;8.95;;;7.88;;
22660;SDS011;11497;52.222;21.246;2023-05-17T10:21:30;8.73;;;7.82;;
22660;SDS011;11497;52.222;21.246;2023-05-17T10:23:59;9.80;;;8.50;;
22660;SDS011;11497;52.222;21.246;2023-05-17T10:26:28;10.10;;;8.75;;
22660;SDS011;11497;52.222;21.246;2023-05-17T10:28:57;10.07;;;8.75;;
22660;SDS011;11497;52.222;21.246;2023-05-17T10:31:28;9.90;;;8.45;;
22660;SDS011;11497;52.222;21.246;2023-05-17T10:34:02;12.55;;;9.50;;
22660;SDS011;11497;52.222;21.246;2023-05-17T10:36:32;10.98;;;8.80;;
22660;SDS011;11497;52.222;21.246;2023-05-17T10:39:00;11.60;;;9.63;;
22660;SDS011;11497;52.222;21.246;2023-05-17T10:41:31;11.68;;;9.73;;
22660;SDS011;11497;52.222;21.246;2023-05-17T10:44:01;13.68;;;9.98;;
22660;SDS011;11497;52.222;21.246;2023-05-17T10:46:30;13.13;;;9.73;;
22660;SDS011;11497;52.222;21.246;2023-05-17T10:48:58;13.48;;;10.40;;
22660;SDS011;11497;52.222;21.246;2023-05-17T10:51:31;15.70;;;10.95;;
22660;SDS011;11497;52.222;21.246;2023-05-17T10:54:13;17.90;;;11.43;;
22660;SDS011;11497;52.222;21.246;2023-05-17T10:56:48;13.32;;;11.48;;
22660;SDS011;11497;52.222;21.246;2023-05-17T10:59:24;16.43;;;11.27;;
22660;SDS011;11497;52.222;21.246;2023-05-17T11:01:57;15.75;;;11.73;;
22660;SDS011;11497;52.222;21.246;2023-05-17T11:04:35;16.80;;;12.27;;
22660;SDS011;11497;52.222;21.246;2023-05-17T11:09:43;15.05;;;11.73;;
22660;SDS011;11497;52.222;21.246;2023-05-17T11:12:38;21.15;;;12.02;;
22660;SDS011;11497;52.222;21.246;2023-05-17T11:22:57;13.68;;;11.23;;
22660;SDS011;11497;52.222;21.246;2023-05-17T11:25:33;18.13;;;12.48;;
22660;SDS011;11497;52.222;21.246;2023-05-17T11:28:06;20.25;;;12.07;;
22660;SDS011;11497;52.222;21.246;2023-05-17T11:30:53;16.40;;;12.50;;
22660;SDS011;11497;52.222;21.246;2023-05-17T11:33:36;17.45;;;12.63;;
22660;SDS011;11497;52.222;21.246;2023-05-17T11:36:18;16.92;;;11.80;;
22660;SDS011;11497;52.222;21.246;2023-05-17T11:38:49;18.10;;;12.35;;
22660;SDS011;11497;52.222;21.246;2023-05-17T11:41:36;17.73;;;11.95;;
22660;SDS011;11497;52.222;21.246;2023-05-17T11:44:08;17.52;;;12.13;;
22660;SDS011;11497;52.222;21.246;2023-05-17T11:46:37;18.38;;;10.50;;
22660;SDS011;11497;52.222;21.246;2023-05-17T11:49:06;17.88;;;11.00;;
22660;SDS011;11497;52.222;21.246;2023-05-17T11:54:09;17.00;;;10.57;;
22660;SDS011;11497;52.222;21.246;2023-05-17T11:56:39;16.52;;;10.98;;
22660;SDS011;11497;52.222;21.246;2023-05-17T11:59:09;13.55;;;9.70;;
22660;SDS011;11497;52.222;21.246;2023-05-17T12:01:41;19.67;;;11.50;;
22660;SDS011;11497;52.222;21.246;2023-05-17T12:04:10;16.23;;;10.57;;
22660;SDS011;11497;52.222;21.246;2023-05-17T12:06:39;16.25;;;10.75;;
22660;SDS011;11497;52.222;21.246;2023-05-17T12:09:08;18.40;;;10.93;;
22660;SDS011;11497;52.222;21.246;2023-05-17T12:11:36;16.27;;;10.25;;
22660;SDS011;11497;52.222;21.246;2023-05-17T12:14:06;16.77;;;9.75;;
22660;SDS011;11497;52.222;21.246;2023-05-17T12:16:35;17.27;;;9.93;;
22660;SDS011;11497;52.222;21.246;2023-05-17T12:19:06;16.45;;;10.15;;
22660;SDS011;11497;52.222;21.246;2023-05-17T12:21:45;14.60;;;9.98;;
22660;SDS011;11497;52.222;21.246;2023-05-17T12:24:14;18.83;;;10.05;;
22660;SDS011;11497;52.222;21.246;2023-05-17T12:26:43;16.70;;;10.10;;
22660;SDS011;11497;52.222;21.246;2023-05-17T12:29:13;19.20;;;10.10;;
22660;SDS011;11497;52.222;21.246;2023-05-17T12:31:46;16.08;;;10.27;;
22660;SDS011;11497;52.222;21.246;2023-05-17T12:34:16;17.58;;;10.20;;
22660;SDS011;11497;52.222;21.246;2023-05-17T12:36:44;16.88;;;10.50;;
22660;SDS011;11497;52.222;21.246;2023-05-17T12:39:13;18.70;;;10.77;;
22660;SDS011;11497;52.222;21.246;2023-05-17T12:41:43;15.13;;;9.57;;
22660;SDS011;11497;52.222;21.246;2023-05-17T12:44:14;16.08;;;9.65;;
22660;SDS011;11497;52.222;21.246;2023-05-17T12:46:43;17.52;;;10.63;;
22660;SDS011;11497;52.222;21.246;2023-05-17T12:49:11;22.38;;;11.18;;
22660;SDS011;11497;52.222;21.246;2023-05-17T12:51:48;14.68;;;10.27;;
22660;SDS011;11497;52.222;21.246;2023-05-17T12:56:50;16.05;;;10.95;;
22660;SDS011;11497;52.222;21.246;2023-05-17T12:59:18;16.20;;;11.23;;
22660;SDS011;11497;52.222;21.246;2023-05-17T13:01:50;15.15;;;10.85;;
22660;SDS011;11497;52.222;21.246;2023-05-17T13:04:29;16.85;;;11.27;;
22660;SDS011;11497;52.222;21.246;2023-05-17T13:07:03;14.60;;;10.40;;
22660;SDS011;11497;52.222;21.246;2023-05-17T13:09:32;17.13;;;10.43;;
22660;SDS011;11497;52.222;21.246;2023-05-17T13:12:10;16.95;;;10.80;;
22660;SDS011;11497;52.222;21.246;2023-05-17T13:14:46;23.52;;;10.73;;
22660;SDS011;11497;52.222;21.246;2023-05-17T13:17:18;20.83;;;12.02;;
22660;SDS011;11497;52.222;21.246;2023-05-17T13:19:51;18.15;;;10.63;;
22660;SDS011;11497;52.222;21.246;2023-05-17T13:22:19;18.48;;;11.05;;
22660;SDS011;11497;52.222;21.246;2023-05-17T13:24:48;20.67;;;12.38;;
22660;SDS011;11497;52.222;21.246;2023-05-17T13:27:16;18.45;;;12.20;;
22660;SDS011;11497;52.222;21.246;2023-05-17T13:29:45;23.25;;;15.02;;
22660;SDS011;11497;52.222;21.246;2023-05-17T13:32:13;24.58;;;12.65;;
22660;SDS011;11497;52.222;21.246;2023-05-17T13:34:41;23.48;;;12.10;;
22660;SDS011;11497;52.222;21.246;2023-05-17T13:37:09;18.48;;;10.38;;
22660;SDS011;11497;52.222;21.246;2023-05-17T13:39:39;16.85;;;10.40;;
22660;SDS011;11497;52.222;21.246;2023-05-17T13:42:08;19.15;;;10.25;;
22660;SDS011;11497;52.222;21.246;2023-05-17T13:44:37;14.35;;;9.82;;
22660;SDS011;11497;52.222;21.246;2023-05-17T13:47:05;28.90;;;10.65;;
22660;SDS011;11497;52.222;21.246;2023-05-17T13:49:33;16.15;;;10.25;;
22660;SDS011;11497;52.222;21.246;2023-05-17T13:52:01;17.20;;;9.77;;
22660;SDS011;11497;52.222;21.246;2023-05-17T13:54:30;30.38;;;10.27;;
22660;SDS011;11497;52.222;21.246;2023-05-17T13:56:57;19.45;;;10.52;;
22660;SDS011;11497;52.222;21.246;2023-05-17T13:59:26;17.05;;;10.40;;
22660;SDS011;11497;52.222;21.246;2023-05-17T14:01:54;14.65;;;10.23;;
22660;SDS011;11497;52.222;21.246;2023-05-17T14:04:23;17.00;;;10.82;;
22660;SDS011;11497;52.222;21.246;2023-05-17T14:06:51;18.00;;;11.50;;
22660;SDS011;11497;52.222;21.246;2023-05-17T14:09:21;14.23;;;9.27;;
22660;SDS011;11497;52.222;21.246;2023-05-17T14:11:48;17.90;;;9.50;;
22660;SDS011;11497;52.222;21.246;2023-05-17T14:14:17;15.82;;;10.20;;
22660;SDS011;11497;52.222;21.246;2023-05-17T14:16:44;18.55;;;9.98;;
22660;SDS011;11497;52.222;21.246;2023-05-17T14:19:12;16.23;;;9.65;;
22660;SDS011;11497;52.222;21.246;2023-05-17T14:21:40;12.52;;;8.48;;
22660;SDS011;11497;52.222;21.246;2023-05-17T14:24:08;15.88;;;9.38;;
22660;SDS011;11497;52.222;21.246;2023-05-17T14:26:36;15.93;;;9.70;;
22660;SDS011;11497;52.222;21.246;2023-05-17T14:29:04;15.45;;;9.15;;
22660;SDS011;11497;52.222;21.246;2023-05-17T14:31:33;17.17;;;9.60;;
22660;SDS011;11497;52.222;21.246;2023-05-17T14:34:01;14.25;;;8.73;;
22660;SDS011;11497;52.222;21.246;2023-05-17T14:36:29;12.75;;;8.52;;
22660;SDS011;11497;52.222;21.246;2023-05-17T14:39:00;13.02;;;8.65;;
22660;SDS011;11497;52.222;21.246;2023-05-17T14:41:28;12.07;;;8.68;;
22660;SDS011;11497;52.222;21.246;2023-05-17T14:43:56;14.75;;;9.02;;
22660;SDS011;11497;52.222;21.246;2023-05-17T14:46:23;20.02;;;9.65;;
22660;SDS011;11497;52.222;21.246;2023-05-17T14:48:51;16.70;;;9.48;;
22660;SDS011;11497;52.222;21.246;2023-05-17T14:51:22;18.10;;;10.18;;
22660;SDS011;11497;52.222;21.246;2023-05-17T14:53:50;13.38;;;9.63;;
22660;SDS011;11497;52.222;21.246;2023-05-17T14:56:19;15.57;;;10.43;;
22660;SDS011;11497;52.222;21.246;2023-05-17T14:58:48;19.98;;;9.82;;
22660;SDS011;11497;52.222;21.246;2023-05-17T15:01:16;16.83;;;9.20;;
22660;SDS011;11497;52.222;21.246;2023-05-17T15:03:45;12.73;;;8.73;;